Adams, Nebraska
Current Conditions -  °F | °C
As of 9:15 AM on Thursday 18 Dec 2014 (Local Time) from KBIE Reporting Station
Haze Haze  
Wind Chill: -3°   Ceiling: 2600
Heat Index: -3°   Visibility: 5mi
Dew Point: -4°   Wind: 3mph
Humidity: 93%   Direction: 120°ESE
Pressure: 30.23"   Gusts: NA
Location:  40.46°N, 96.51°W
Report Text: KBIE 181515Z AUTO 12003KT 5SM BR SCT006 OVC026 M03/M04 A3023 RMK AO2 T10261036
Loading
Personal Weather Stations






























Interactive Weather Map New forecast layout! Learn more

10-Day Weather Forecast

Advertisements
Track Severe Weather on mobile